sensor_id;sensor_type;location;lat;lon;timestamp;temperature;humidity
22108;DHT22;11220;48.812;9.128;2023-10-31T00:02:24;18.20;93.30
22108;DHT22;11220;48.812;9.128;2023-10-31T00:04:49;18.20;93.30
22108;DHT22;11220;48.812;9.128;2023-10-31T00:07:15;18.20;93.30
22108;DHT22;11220;48.812;9.128;2023-10-31T00:09:40;18.20;93.30
22108;DHT22;11220;48.812;9.128;2023-10-31T00:12:06;18.20;93.30
22108;DHT22;11220;48.812;9.128;2023-10-31T00:14:32;18.20;93.30
22108;DHT22;11220;48.812;9.128;2023-10-31T00:17:00;18.20;93.30
22108;DHT22;11220;48.812;9.128;2023-10-31T00:19:26;18.20;93.30
22108;DHT22;11220;48.812;9.128;2023-10-31T00:21:52;18.20;93.40
22108;DHT22;11220;48.812;9.128;2023-10-31T00:24:17;18.20;93.30
22108;DHT22;11220;48.812;9.128;2023-10-31T00:26:43;18.10;93.30
22108;DHT22;11220;48.812;9.128;2023-10-31T00:29:08;18.10;93.30
22108;DHT22;11220;48.812;9.128;2023-10-31T00:31:34;18.20;93.30
22108;DHT22;11220;48.812;9.128;2023-10-31T00:34:01;18.10;93.30
22108;DHT22;11220;48.812;9.128;2023-10-31T00:36:27;18.10;93.30
22108;DHT22;11220;48.812;9.128;2023-10-31T00:38:52;18.20;93.30
22108;DHT22;11220;48.812;9.128;2023-10-31T00:41:18;18.10;93.30
22108;DHT22;11220;48.812;9.128;2023-10-31T00:43:43;18.10;93.30
22108;DHT22;11220;48.812;9.128;2023-10-31T00:46:09;18.10;93.30
22108;DHT22;11220;48.812;9.128;2023-10-31T00:48:34;18.10;93.40
22108;DHT22;11220;48.812;9.128;2023-10-31T00:51:03;18.10;93.40
22108;DHT22;11220;48.812;9.128;2023-10-31T00:53:29;18.10;93.30
22108;DHT22;11220;48.812;9.128;2023-10-31T00:55:54;18.10;93.30
22108;DHT22;11220;48.812;9.128;2023-10-31T00:58:20;18.10;93.30
22108;DHT22;11220;48.812;9.128;2023-10-31T01:00:45;18.10;93.40
22108;DHT22;11220;48.812;9.128;2023-10-31T01:03:12;18.10;93.40
22108;DHT22;11220;48.812;9.128;2023-10-31T01:05:38;18.10;93.40
22108;DHT22;11220;48.812;9.128;2023-10-31T01:08:03;18.10;93.40
22108;DHT22;11220;48.812;9.128;2023-10-31T01:10:29;18.10;93.40
22108;DHT22;11220;48.812;9.128;2023-10-31T01:12:55;18.10;93.30
22108;DHT22;11220;48.812;9.128;2023-10-31T01:15:20;18.10;93.40
22108;DHT22;11220;48.812;9.128;2023-10-31T01:17:46;18.10;93.30
22108;DHT22;11220;48.812;9.128;2023-10-31T01:20:11;18.00;93.30
22108;DHT22;11220;48.812;9.128;2023-10-31T01:22:37;18.00;93.30
22108;DHT22;11220;48.812;9.128;2023-10-31T01:25:03;18.00;93.20
22108;DHT22;11220;48.812;9.128;2023-10-31T01:27:28;18.00;93.20
22108;DHT22;11220;48.812;9.128;2023-10-31T01:29:54;18.00;93.20
22108;DHT22;11220;48.812;9.128;2023-10-31T01:32:19;18.00;93.20
22108;DHT22;11220;48.812;9.128;2023-10-31T01:34:45;18.00;93.20
22108;DHT22;11220;48.812;9.128;2023-10-31T01:37:10;18.00;93.20
22108;DHT22;11220;48.812;9.128;2023-10-31T01:39:39;18.00;93.20
22108;DHT22;11220;48.812;9.128;2023-10-31T01:42:05;18.00;93.20
22108;DHT22;11220;48.812;9.128;2023-10-31T01:44:30;18.00;93.10
22108;DHT22;11220;48.812;9.128;2023-10-31T01:46:56;18.00;93.10
22108;DHT22;11220;48.812;9.128;2023-10-31T01:49:21;18.00;93.10
22108;DHT22;11220;48.812;9.128;2023-10-31T01:51:47;18.00;93.10
22108;DHT22;11220;48.812;9.128;2023-10-31T01:54:13;17.90;93.00
22108;DHT22;11220;48.812;9.128;2023-10-31T01:56:40;17.90;93.00
22108;DHT22;11220;48.812;9.128;2023-10-31T01:59:06;17.90;93.00
22108;DHT22;11220;48.812;9.128;2023-10-31T02:01:32;17.90;93.00
22108;DHT22;11220;48.812;9.128;2023-10-31T02:03:58;17.90;93.00
22108;DHT22;11220;48.812;9.128;2023-10-31T02:06:24;17.90;93.10
22108;DHT22;11220;48.812;9.128;2023-10-31T02:08:50;18.20;93.20
22108;DHT22;11220;48.812;9.128;2023-10-31T02:11:15;17.90;93.10
22108;DHT22;11220;48.812;9.128;2023-10-31T02:13:41;17.90;93.10
22108;DHT22;11220;48.812;9.128;2023-10-31T02:16:06;17.80;93.00
22108;DHT22;11220;48.812;9.128;2023-10-31T02:18:33;17.90;93.00
22108;DHT22;11220;48.812;9.128;2023-10-31T02:20:59;17.80;93.00
22108;DHT22;11220;48.812;9.128;2023-10-31T02:23:24;17.90;93.00
22108;DHT22;11220;48.812;9.128;2023-10-31T02:25:50;18.00;93.10
22108;DHT22;11220;48.812;9.128;2023-10-31T02:28:15;17.90;93.00
22108;DHT22;11220;48.812;9.128;2023-10-31T02:30:41;17.80;93.00
22108;DHT22;11220;48.812;9.128;2023-10-31T02:33:07;17.90;93.00
22108;DHT22;11220;48.812;9.128;2023-10-31T02:35:32;17.90;93.10
22108;DHT22;11220;48.812;9.128;2023-10-31T02:37:58;17.90;93.10
22108;DHT22;11220;48.812;9.128;2023-10-31T02:40:23;17.80;93.00
22108;DHT22;11220;48.812;9.128;2023-10-31T02:42:49;17.80;93.00
22108;DHT22;11220;48.812;9.128;2023-10-31T02:45:15;17.80;93.00
22108;DHT22;11220;48.812;9.128;2023-10-31T02:47:40;17.80;93.00
22108;DHT22;11220;48.812;9.128;2023-10-31T02:50:06;17.80;93.00
22108;DHT22;11220;48.812;9.128;2023-10-31T02:52:32;17.80;93.00
22108;DHT22;11220;48.812;9.128;2023-10-31T02:54:58;17.80;92.90
22108;DHT22;11220;48.812;9.128;2023-10-31T02:57:23;17.80;93.00
22108;DHT22;11220;48.812;9.128;2023-10-31T02:59:49;17.80;93.00
22108;DHT22;11220;48.812;9.128;2023-10-31T03:02:14;17.80;93.00
22108;DHT22;11220;48.812;9.128;2023-10-31T03:04:40;17.80;93.00
22108;DHT22;11220;48.812;9.128;2023-10-31T03:07:05;17.80;93.00
22108;DHT22;11220;48.812;9.128;2023-10-31T03:09:31;17.80;93.00
22108;DHT22;11220;48.812;9.128;2023-10-31T03:11:56;17.80;93.00
22108;DHT22;11220;48.812;9.128;2023-10-31T03:14:22;17.80;93.00
22108;DHT22;11220;48.812;9.128;2023-10-31T03:16:47;17.80;93.00
22108;DHT22;11220;48.812;9.128;2023-10-31T03:19:13;17.80;93.00
22108;DHT22;11220;48.812;9.128;2023-10-31T03:21:38;17.80;92.90
22108;DHT22;11220;48.812;9.128;2023-10-31T03:24:05;17.80;92.90
22108;DHT22;11220;48.812;9.128;2023-10-31T03:26:30;17.80;92.90
22108;DHT22;11220;48.812;9.128;2023-10-31T03:28:56;17.80;92.90
22108;DHT22;11220;48.812;9.128;2023-10-31T03:31:23;17.70;92.80
22108;DHT22;11220;48.812;9.128;2023-10-31T03:33:49;17.70;92.80
22108;DHT22;11220;48.812;9.128;2023-10-31T03:36:14;17.80;92.90
22108;DHT22;11220;48.812;9.128;2023-10-31T03:38:40;17.80;92.90
22108;DHT22;11220;48.812;9.128;2023-10-31T03:41:05;17.70;92.90
22108;DHT22;11220;48.812;9.128;2023-10-31T03:43:31;17.80;92.90
22108;DHT22;11220;48.812;9.128;2023-10-31T03:45:57;17.80;92.90
22108;DHT22;11220;48.812;9.128;2023-10-31T03:48:22;17.80;93.00
22108;DHT22;11220;48.812;9.128;2023-10-31T03:50:48;17.80;92.90
22108;DHT22;11220;48.812;9.128;2023-10-31T03:53:15;17.80;92.90
22108;DHT22;11220;48.812;9.128;2023-10-31T03:55:40;17.80;92.90
22108;DHT22;11220;48.812;9.128;2023-10-31T03:58:06;17.80;92.90
22108;DHT22;11220;48.812;9.128;2023-10-31T04:00:32;17.70;92.80
22108;DHT22;11220;48.812;9.128;2023-10-31T04:02:57;17.70;92.80
22108;DHT22;11220;48.812;9.128;2023-10-31T04:05:23;17.70;92.80
22108;DHT22;11220;48.812;9.128;2023-10-31T04:07:48;17.70;92.80
22108;DHT22;11220;48.812;9.128;2023-10-31T04:10:14;17.70;92.80
22108;DHT22;11220;48.812;9.128;2023-10-31T04:12:40;17.80;92.90
22108;DHT22;11220;48.812;9.128;2023-10-31T04:15:07;17.70;92.90
22108;DHT22;11220;48.812;9.128;2023-10-31T04:17:32;17.70;92.90
22108;DHT22;11220;48.812;9.128;2023-10-31T04:19:58;18.00;93.00
22108;DHT22;11220;48.812;9.128;2023-10-31T04:22:23;17.70;92.90
22108;DHT22;11220;48.812;9.128;2023-10-31T04:24:49;17.70;92.80
22108;DHT22;11220;48.812;9.128;2023-10-31T04:27:15;17.70;92.80
22108;DHT22;11220;48.812;9.128;2023-10-31T04:29:40;17.70;92.80
22108;DHT22;11220;48.812;9.128;2023-10-31T04:32:06;17.80;92.90
22108;DHT22;11220;48.812;9.128;2023-10-31T04:34:31;17.70;92.80
22108;DHT22;11220;48.812;9.128;2023-10-31T04:36:57;17.70;92.80
22108;DHT22;11220;48.812;9.128;2023-10-31T04:39:23;17.70;92.80
22108;DHT22;11220;48.812;9.128;2023-10-31T04:41:48;17.70;92.90
22108;DHT22;11220;48.812;9.128;2023-10-31T04:44:14;17.70;93.00
22108;DHT22;11220;48.812;9.128;2023-10-31T04:46:39;17.70;93.00
22108;DHT22;11220;48.812;9.128;2023-10-31T04:49:05;17.70;92.90
22108;DHT22;11220;48.812;9.128;2023-10-31T04:51:37;17.80;92.80
22108;DHT22;11220;48.812;9.128;2023-10-31T04:54:03;17.70;92.70
22108;DHT22;11220;48.812;9.128;2023-10-31T04:56:29;17.70;92.70
22108;DHT22;11220;48.812;9.128;2023-10-31T04:58:54;17.70;92.60
22108;DHT22;11220;48.812;9.128;2023-10-31T05:01:20;17.70;92.60
22108;DHT22;11220;48.812;9.128;2023-10-31T05:03:45;17.60;92.60
22108;DHT22;11220;48.812;9.128;2023-10-31T05:06:11;17.70;92.60
22108;DHT22;11220;48.812;9.128;2023-10-31T05:08:37;17.60;92.50
22108;DHT22;11220;48.812;9.128;2023-10-31T05:11:03;17.60;92.50
22108;DHT22;11220;48.812;9.128;2023-10-31T05:13:28;17.70;92.50
22108;DHT22;11220;48.812;9.128;2023-10-31T05:15:54;17.60;92.50
22108;DHT22;11220;48.812;9.128;2023-10-31T05:18:20;17.60;92.50
22108;DHT22;11220;48.812;9.128;2023-10-31T05:20:45;17.60;92.50
22108;DHT22;11220;48.812;9.128;2023-10-31T05:23:11;17.60;92.50
22108;DHT22;11220;48.812;9.128;2023-10-31T05:25:37;17.70;92.50
22108;DHT22;11220;48.812;9.128;2023-10-31T05:28:03;17.60;92.50
22108;DHT22;11220;48.812;9.128;2023-10-31T05:30:29;17.60;92.50
22108;DHT22;11220;48.812;9.128;2023-10-31T05:32:54;17.60;92.50
22108;DHT22;11220;48.812;9.128;2023-10-31T05:35:20;17.60;92.50
22108;DHT22;11220;48.812;9.128;2023-10-31T05:37:46;17.60;92.50
22108;DHT22;11220;48.812;9.128;2023-10-31T05:40:12;17.70;92.60
22108;DHT22;11220;48.812;9.128;2023-10-31T05:42:39;17.60;92.50
22108;DHT22;11220;48.812;9.128;2023-10-31T05:45:05;17.60;92.50
22108;DHT22;11220;48.812;9.128;2023-10-31T05:47:30;17.60;92.40
22108;DHT22;11220;48.812;9.128;2023-10-31T05:49:56;17.60;92.40
22108;DHT22;11220;48.812;9.128;2023-10-31T05:52:22;17.60;92.30
22108;DHT22;11220;48.812;9.128;2023-10-31T05:54:49;17.60;92.30
22108;DHT22;11220;48.812;9.128;2023-10-31T05:57:14;17.70;92.40
22108;DHT22;11220;48.812;9.128;2023-10-31T05:59:40;17.60;92.40
22108;DHT22;11220;48.812;9.128;2023-10-31T06:02:05;17.60;92.40
22108;DHT22;11220;48.812;9.128;2023-10-31T06:04:31;17.60;92.30
22108;DHT22;11220;48.812;9.128;2023-10-31T06:06:56;17.70;92.40
22108;DHT22;11220;48.812;9.128;2023-10-31T06:09:22;17.60;92.30
22108;DHT22;11220;48.812;9.128;2023-10-31T06:11:47;17.70;92.20
22108;DHT22;11220;48.812;9.128;2023-10-31T06:14:13;17.70;92.30
22108;DHT22;11220;48.812;9.128;2023-10-31T06:16:43;17.80;92.40
22108;DHT22;11220;48.812;9.128;2023-10-31T06:19:09;17.80;92.40
22108;DHT22;11220;48.812;9.128;2023-10-31T06:21:35;17.80;92.30
22108;DHT22;11220;48.812;9.128;2023-10-31T06:24:00;17.80;92.30
22108;DHT22;11220;48.812;9.128;2023-10-31T06:26:26;17.80;92.30
22108;DHT22;11220;48.812;9.128;2023-10-31T06:28:51;17.80;92.30
22108;DHT22;11220;48.812;9.128;2023-10-31T06:31:17;17.90;92.30
22108;DHT22;11220;48.812;9.128;2023-10-31T06:33:42;17.90;92.30
22108;DHT22;11220;48.812;9.128;2023-10-31T06:36:08;17.90;92.30
22108;DHT22;11220;48.812;9.128;2023-10-31T06:38:34;17.90;92.40
22108;DHT22;11220;48.812;9.128;2023-10-31T06:40:59;18.00;92.40
22108;DHT22;11220;48.812;9.128;2023-10-31T06:43:25;18.00;92.40
22108;DHT22;11220;48.812;9.128;2023-10-31T06:45:51;18.00;92.40
22108;DHT22;11220;48.812;9.128;2023-10-31T06:48:16;18.00;92.40
22108;DHT22;11220;48.812;9.128;2023-10-31T06:50:42;18.10;92.40
22108;DHT22;11220;48.812;9.128;2023-10-31T06:53:07;18.10;92.30
22108;DHT22;11220;48.812;9.128;2023-10-31T06:55:34;18.20;92.40
22108;DHT22;11220;48.812;9.128;2023-10-31T06:57:59;18.10;92.30
22108;DHT22;11220;48.812;9.128;2023-10-31T07:00:25;18.10;92.40
22108;DHT22;11220;48.812;9.128;2023-10-31T07:02:50;18.10;92.40
22108;DHT22;11220;48.812;9.128;2023-10-31T07:05:16;18.20;92.50
22108;DHT22;11220;48.812;9.128;2023-10-31T07:07:42;18.20;92.40
22108;DHT22;11220;48.812;9.128;2023-10-31T07:10:07;18.20;92.40
22108;DHT22;11220;48.812;9.128;2023-10-31T07:12:33;18.20;92.30
22108;DHT22;11220;48.812;9.128;2023-10-31T07:14:58;18.20;92.30
22108;DHT22;11220;48.812;9.128;2023-10-31T07:17:25;18.20;92.30
22108;DHT22;11220;48.812;9.128;2023-10-31T07:19:50;18.20;92.20
22108;DHT22;11220;48.812;9.128;2023-10-31T07:22:16;18.30;92.30
22108;DHT22;11220;48.812;9.128;2023-10-31T07:24:41;18.30;92.20
22108;DHT22;11220;48.812;9.128;2023-10-31T07:27:08;18.30;92.20
22108;DHT22;11220;48.812;9.128;2023-10-31T07:29:34;18.30;92.20
22108;DHT22;11220;48.812;9.128;2023-10-31T07:31:59;18.30;92.20
22108;DHT22;11220;48.812;9.128;2023-10-31T07:34:25;18.30;92.20
22108;DHT22;11220;48.812;9.128;2023-10-31T07:36:51;18.40;92.20
22108;DHT22;11220;48.812;9.128;2023-10-31T07:39:16;18.30;92.10
22108;DHT22;11220;48.812;9.128;2023-10-31T07:41:42;18.30;92.10
22108;DHT22;11220;48.812;9.128;2023-10-31T07:44:07;18.30;92.10
22108;DHT22;11220;48.812;9.128;2023-10-31T07:46:33;18.30;92.10
22108;DHT22;11220;48.812;9.128;2023-10-31T07:48:58;18.30;92.10
22108;DHT22;11220;48.812;9.128;2023-10-31T07:51:24;18.60;92.10
22108;DHT22;11220;48.812;9.128;2023-10-31T07:53:49;18.30;92.10
22108;DHT22;11220;48.812;9.128;2023-10-31T07:56:18;18.30;92.00
22108;DHT22;11220;48.812;9.128;2023-10-31T07:58:48;18.30;92.10
22108;DHT22;11220;48.812;9.128;2023-10-31T08:01:16;18.30;92.10
22108;DHT22;11220;48.812;9.128;2023-10-31T08:03:42;18.30;92.10
22108;DHT22;11220;48.812;9.128;2023-10-31T08:06:07;18.30;92.10
22108;DHT22;11220;48.812;9.128;2023-10-31T08:08:33;18.30;92.10
22108;DHT22;11220;48.812;9.128;2023-10-31T08:10:59;19.00;92.20
22108;DHT22;11220;48.812;9.128;2023-10-31T08:13:25;18.40;92.00
22108;DHT22;11220;48.812;9.128;2023-10-31T08:15:51;18.40;92.00
22108;DHT22;11220;48.812;9.128;2023-10-31T08:18:16;18.40;92.10
22108;DHT22;11220;48.812;9.128;2023-10-31T08:20:42;18.40;92.00
22108;DHT22;11220;48.812;9.128;2023-10-31T08:23:08;18.40;92.00
22108;DHT22;11220;48.812;9.128;2023-10-31T08:25:34;18.40;92.00
22108;DHT22;11220;48.812;9.128;2023-10-31T08:28:00;18.40;92.00
22108;DHT22;11220;48.812;9.128;2023-10-31T08:30:25;18.40;92.00
22108;DHT22;11220;48.812;9.128;2023-10-31T08:32:51;18.40;92.00
22108;DHT22;11220;48.812;9.128;2023-10-31T08:35:16;18.40;92.00
22108;DHT22;11220;48.812;9.128;2023-10-31T08:37:42;18.40;92.00
22108;DHT22;11220;48.812;9.128;2023-10-31T08:40:08;18.50;91.90
22108;DHT22;11220;48.812;9.128;2023-10-31T08:42:33;18.50;92.00
22108;DHT22;11220;48.812;9.128;2023-10-31T08:44:59;18.50;91.90
22108;DHT22;11220;48.812;9.128;2023-10-31T08:47:24;18.50;92.00
22108;DHT22;11220;48.812;9.128;2023-10-31T08:49:50;18.50;92.10
22108;DHT22;11220;48.812;9.128;2023-10-31T08:52:16;18.50;92.10
22108;DHT22;11220;48.812;9.128;2023-10-31T08:54:43;18.50;92.10
22108;DHT22;11220;48.812;9.128;2023-10-31T08:57:08;18.50;92.20
22108;DHT22;11220;48.812;9.128;2023-10-31T08:59:34;18.50;92.10
22108;DHT22;11220;48.812;9.128;2023-10-31T09:02:01;18.50;92.10
22108;DHT22;11220;48.812;9.128;2023-10-31T09:04:26;18.50;92.10
22108;DHT22;11220;48.812;9.128;2023-10-31T09:06:52;18.50;92.10
22108;DHT22;11220;48.812;9.128;2023-10-31T09:09:17;18.50;92.20
22108;DHT22;11220;48.812;9.128;2023-10-31T09:11:43;18.30;92.10
22108;DHT22;11220;48.812;9.128;2023-10-31T09:14:08;18.60;92.10
22108;DHT22;11220;48.812;9.128;2023-10-31T09:16:34;18.60;92.20
22108;DHT22;11220;48.812;9.128;2023-10-31T09:19:00;18.50;92.10
22108;DHT22;11220;48.812;9.128;2023-10-31T09:21:25;18.60;92.20
22108;DHT22;11220;48.812;9.128;2023-10-31T09:23:51;18.60;92.20
22108;DHT22;11220;48.812;9.128;2023-10-31T09:26:16;18.60;92.20
22108;DHT22;11220;48.812;9.128;2023-10-31T09:28:43;18.80;92.20
22108;DHT22;11220;48.812;9.128;2023-10-31T09:31:18;18.60;92.20
22108;DHT22;11220;48.812;9.128;2023-10-31T09:33:44;18.60;92.20
22108;DHT22;11220;48.812;9.128;2023-10-31T09:36:11;18.60;92.20
22108;DHT22;11220;48.812;9.128;2023-10-31T09:38:36;18.60;92.20
22108;DHT22;11220;48.812;9.128;2023-10-31T09:41:02;18.60;92.20
22108;DHT22;11220;48.812;9.128;2023-10-31T09:43:28;18.70;92.20
22108;DHT22;11220;48.812;9.128;2023-10-31T09:45:54;18.70;92.10
22108;DHT22;11220;48.812;9.128;2023-10-31T09:48:20;18.60;92.10
22108;DHT22;11220;48.812;9.128;2023-10-31T09:50:47;18.70;92.10
22108;DHT22;11220;48.812;9.128;2023-10-31T09:53:14;18.70;92.10
22108;DHT22;11220;48.812;9.128;2023-10-31T09:55:42;18.70;92.00
22108;DHT22;11220;48.812;9.128;2023-10-31T09:58:08;19.20;92.20
22108;DHT22;11220;48.812;9.128;2023-10-31T10:00:34;18.70;92.10
22108;DHT22;11220;48.812;9.128;2023-10-31T10:03:02;18.70;92.10
22108;DHT22;11220;48.812;9.128;2023-10-31T10:05:30;18.70;92.00
22108;DHT22;11220;48.812;9.128;2023-10-31T10:07:56;18.70;92.10
22108;DHT22;11220;48.812;9.128;2023-10-31T10:10:22;18.70;92.10
22108;DHT22;11220;48.812;9.128;2023-10-31T10:12:47;18.90;92.10
22108;DHT22;11220;48.812;9.128;2023-10-31T10:15:13;18.70;92.10
22108;DHT22;11220;48.812;9.128;2023-10-31T10:17:38;18.70;92.20
22108;DHT22;11220;48.812;9.128;2023-10-31T10:20:11;18.80;92.10
22108;DHT22;11220;48.812;9.128;2023-10-31T10:22:40;18.80;92.10
22108;DHT22;11220;48.812;9.128;2023-10-31T10:25:14;18.80;92.20
22108;DHT22;11220;48.812;9.128;2023-10-31T10:27:46;18.80;92.20
22108;DHT22;11220;48.812;9.128;2023-10-31T10:30:14;18.80;92.20
22108;DHT22;11220;48.812;9.128;2023-10-31T10:32:41;19.00;92.20
22108;DHT22;11220;48.812;9.128;2023-10-31T10:35:07;19.40;92.40
22108;DHT22;11220;48.812;9.128;2023-10-31T10:37:37;18.80;92.30
22108;DHT22;11220;48.812;9.128;2023-10-31T10:40:10;18.80;92.20
22108;DHT22;11220;48.812;9.128;2023-10-31T10:42:45;18.80;92.20
22108;DHT22;11220;48.812;9.128;2023-10-31T10:45:15;18.80;92.30
22108;DHT22;11220;48.812;9.128;2023-10-31T10:47:47;18.80;92.20
22108;DHT22;11220;48.812;9.128;2023-10-31T10:50:13;18.80;92.20
22108;DHT22;11220;48.812;9.128;2023-10-31T10:52:44;18.80;92.10
22108;DHT22;11220;48.812;9.128;2023-10-31T10:55:20;18.90;92.10
22108;DHT22;11220;48.812;9.128;2023-10-31T11:00:26;18.90;92.10
22108;DHT22;11220;48.812;9.128;2023-10-31T11:02:56;18.90;92.00
22108;DHT22;11220;48.812;9.128;2023-10-31T11:05:23;18.90;92.00
22108;DHT22;11220;48.812;9.128;2023-10-31T11:07:49;18.90;92.00
22108;DHT22;11220;48.812;9.128;2023-10-31T11:10:17;19.00;92.00
22108;DHT22;11220;48.812;9.128;2023-10-31T11:12:43;19.00;91.90
22108;DHT22;11220;48.812;9.128;2023-10-31T11:15:10;19.00;92.00
22108;DHT22;11220;48.812;9.128;2023-10-31T11:17:39;18.90;92.00
22108;DHT22;11220;48.812;9.128;2023-10-31T11:20:07;19.00;92.00
22108;DHT22;11220;48.812;9.128;2023-10-31T11:25:08;19.00;92.10
22108;DHT22;11220;48.812;9.128;2023-10-31T11:27:35;19.00;92.00
22108;DHT22;11220;48.812;9.128;2023-10-31T11:30:05;19.00;92.00
22108;DHT22;11220;48.812;9.128;2023-10-31T11:32:32;19.00;92.00
22108;DHT22;11220;48.812;9.128;2023-10-31T11:34:59;19.00;92.00
22108;DHT22;11220;48.812;9.128;2023-10-31T11:37:32;19.00;91.90
22108;DHT22;11220;48.812;9.128;2023-10-31T11:40:15;18.90;91.90
22108;DHT22;11220;48.812;9.128;2023-10-31T11:42:41;19.00;91.90
22108;DHT22;11220;48.812;9.128;2023-10-31T11:45:10;19.00;92.00
22108;DHT22;11220;48.812;9.128;2023-10-31T11:47:51;19.00;92.00
22108;DHT22;11220;48.812;9.128;2023-10-31T11:50:17;19.00;92.00
22108;DHT22;11220;48.812;9.128;2023-10-31T11:52:43;19.00;92.00
22108;DHT22;11220;48.812;9.128;2023-10-31T11:55:12;19.10;92.10
22108;DHT22;11220;48.812;9.128;2023-10-31T11:57:41;19.00;92.00
22108;DHT22;11220;48.812;9.128;2023-10-31T12:00:07;19.00;92.10
22108;DHT22;11220;48.812;9.128;2023-10-31T12:02:57;18.90;92.10
22108;DHT22;11220;48.812;9.128;2023-10-31T12:05:22;19.00;92.10
22108;DHT22;11220;48.812;9.128;2023-10-31T12:07:48;19.00;92.00
22108;DHT22;11220;48.812;9.128;2023-10-31T12:10:22;19.00;92.00
22108;DHT22;11220;48.812;9.128;2023-10-31T12:12:49;19.00;92.00
22108;DHT22;11220;48.812;9.128;2023-10-31T12:15:15;19.00;92.00
22108;DHT22;11220;48.812;9.128;2023-10-31T12:17:40;19.00;92.00
22108;DHT22;11220;48.812;9.128;2023-10-31T12:20:08;19.00;91.90
22108;DHT22;11220;48.812;9.128;2023-10-31T12:22:36;19.00;91.90
22108;DHT22;11220;48.812;9.128;2023-10-31T12:25:03;19.30;92.00
22108;DHT22;11220;48.812;9.128;2023-10-31T12:27:49;19.00;91.90
22108;DHT22;11220;48.812;9.128;2023-10-31T12:30:20;19.00;91.90
22108;DHT22;11220;48.812;9.128;2023-10-31T12:32:53;19.10;91.90
22108;DHT22;11220;48.812;9.128;2023-10-31T12:35:21;19.10;91.90
22108;DHT22;11220;48.812;9.128;2023-10-31T12:37:48;19.10;91.80
22108;DHT22;11220;48.812;9.128;2023-10-31T12:40:17;19.10;91.90
22108;DHT22;11220;48.812;9.128;2023-10-31T12:42:44;19.10;91.80
22108;DHT22;11220;48.812;9.128;2023-10-31T12:45:11;19.10;91.80
22108;DHT22;11220;48.812;9.128;2023-10-31T12:47:37;19.10;91.80
22108;DHT22;11220;48.812;9.128;2023-10-31T12:50:16;19.10;91.80
22108;DHT22;11220;48.812;9.128;2023-10-31T12:52:51;19.10;91.80
22108;DHT22;11220;48.812;9.128;2023-10-31T12:55:25;19.10;91.90
22108;DHT22;11220;48.812;9.128;2023-10-31T12:57:51;19.00;91.90
22108;DHT22;11220;48.812;9.128;2023-10-31T13:00:19;19.10;91.90
22108;DHT22;11220;48.812;9.128;2023-10-31T13:02:50;19.10;91.80
22108;DHT22;11220;48.812;9.128;2023-10-31T13:05:16;19.00;91.80
22108;DHT22;11220;48.812;9.128;2023-10-31T13:08:00;19.00;91.90
22108;DHT22;11220;48.812;9.128;2023-10-31T13:10:28;19.10;91.90
22108;DHT22;11220;48.812;9.128;2023-10-31T13:12:55;19.10;91.90
22108;DHT22;11220;48.812;9.128;2023-10-31T13:15:22;19.10;91.80
22108;DHT22;11220;48.812;9.128;2023-10-31T13:17:48;19.10;91.80
22108;DHT22;11220;48.812;9.128;2023-10-31T13:20:15;19.10;91.90
22108;DHT22;11220;48.812;9.128;2023-10-31T13:22:42;19.10;91.80
22108;DHT22;11220;48.812;9.128;2023-10-31T13:25:09;19.10;91.80
22108;DHT22;11220;48.812;9.128;2023-10-31T13:27:37;19.10;91.80
22108;DHT22;11220;48.812;9.128;2023-10-31T13:30:06;19.10;91.90
22108;DHT22;11220;48.812;9.128;2023-10-31T13:32:32;19.10;90.50
22108;DHT22;11220;48.812;9.128;2023-10-31T13:34:57;19.00;90.90
22108;DHT22;11220;48.812;9.128;2023-10-31T13:37:23;19.00;91.40
22108;DHT22;11220;48.812;9.128;2023-10-31T13:39:49;19.00;91.60
22108;DHT22;11220;48.812;9.128;2023-10-31T13:42:14;19.00;91.80
22108;DHT22;11220;48.812;9.128;2023-10-31T13:44:41;19.00;91.80
22108;DHT22;11220;48.812;9.128;2023-10-31T13:47:07;19.00;91.80
22108;DHT22;11220;48.812;9.128;2023-10-31T13:49:32;19.00;91.80
22108;DHT22;11220;48.812;9.128;2023-10-31T13:51:58;19.00;91.80
22108;DHT22;11220;48.812;9.128;2023-10-31T13:54:23;19.00;91.80
22108;DHT22;11220;48.812;9.128;2023-10-31T13:56:49;19.00;91.80
22108;DHT22;11220;48.812;9.128;2023-10-31T13:59:14;19.00;91.70
22108;DHT22;11220;48.812;9.128;2023-10-31T14:01:41;19.00;91.60
22108;DHT22;11220;48.812;9.128;2023-10-31T14:04:07;19.10;91.50
22108;DHT22;11220;48.812;9.128;2023-10-31T14:06:33;19.00;91.50
22108;DHT22;11220;48.812;9.128;2023-10-31T14:09:00;19.00;91.60
22108;DHT22;11220;48.812;9.128;2023-10-31T14:11:32;19.00;91.50
22108;DHT22;11220;48.812;9.128;2023-10-31T14:13:59;19.00;91.60
22108;DHT22;11220;48.812;9.128;2023-10-31T14:16:29;18.90;91.60
22108;DHT22;11220;48.812;9.128;2023-10-31T14:18:55;18.90;91.60
22108;DHT22;11220;48.812;9.128;2023-10-31T14:21:20;18.90;91.60
22108;DHT22;11220;48.812;9.128;2023-10-31T14:23:46;18.90;91.60
22108;DHT22;11220;48.812;9.128;2023-10-31T14:26:22;18.90;91.70
22108;DHT22;11220;48.812;9.128;2023-10-31T14:28:47;18.90;91.60
22108;DHT22;11220;48.812;9.128;2023-10-31T14:31:17;18.90;91.60
22108;DHT22;11220;48.812;9.128;2023-10-31T14:33:42;18.90;91.60
22108;DHT22;11220;48.812;9.128;2023-10-31T14:36:09;18.90;91.70
22108;DHT22;11220;48.812;9.128;2023-10-31T14:38:37;18.90;91.60
22108;DHT22;11220;48.812;9.128;2023-10-31T14:41:02;18.90;91.60
22108;DHT22;11220;48.812;9.128;2023-10-31T14:43:29;18.90;92.00
22108;DHT22;11220;48.812;9.128;2023-10-31T14:45:54;18.90;91.70
22108;DHT22;11220;48.812;9.128;2023-10-31T14:48:20;18.90;91.60
22108;DHT22;11220;48.812;9.128;2023-10-31T14:50:46;18.90;91.60
22108;DHT22;11220;48.812;9.128;2023-10-31T14:53:12;18.90;91.50
22108;DHT22;11220;48.812;9.128;2023-10-31T14:55:38;18.90;91.40
22108;DHT22;11220;48.812;9.128;2023-10-31T14:58:04;18.80;91.40
22108;DHT22;11220;48.812;9.128;2023-10-31T15:00:29;18.80;91.20
22108;DHT22;11220;48.812;9.128;2023-10-31T15:02:56;18.80;91.30
22108;DHT22;11220;48.812;9.128;2023-10-31T15:05:21;18.80;91.40
22108;DHT22;11220;48.812;9.128;2023-10-31T15:07:48;18.70;91.50
22108;DHT22;11220;48.812;9.128;2023-10-31T15:10:14;18.80;91.50
22108;DHT22;11220;48.812;9.128;2023-10-31T15:12:39;18.80;91.50
22108;DHT22;11220;48.812;9.128;2023-10-31T15:15:07;18.80;91.60
22108;DHT22;11220;48.812;9.128;2023-10-31T15:17:33;18.80;91.50
22108;DHT22;11220;48.812;9.128;2023-10-31T15:19:58;18.80;91.60
22108;DHT22;11220;48.812;9.128;2023-10-31T15:22:24;18.80;91.60
22108;DHT22;11220;48.812;9.128;2023-10-31T15:24:49;18.80;91.60
22108;DHT22;11220;48.812;9.128;2023-10-31T15:27:15;18.80;91.60
22108;DHT22;11220;48.812;9.128;2023-10-31T15:29:43;18.80;91.60
22108;DHT22;11220;48.812;9.128;2023-10-31T15:32:08;18.80;91.70